sensor_id;sensor_type;location;lat;lon;timestamp;temperature;humidity
21627;DHT22;10975;47.872;12.972;2023-04-07T00:01:43;0.20;99.90
21627;DHT22;10975;47.872;12.972;2023-04-07T00:04:09;0.20;99.90
21627;DHT22;10975;47.872;12.972;2023-04-07T00:06:36;0.10;99.90
21627;DHT22;10975;47.872;12.972;2023-04-07T00:09:03;0.10;99.90
21627;DHT22;10975;47.872;12.972;2023-04-07T00:11:30;0.10;99.90
21627;DHT22;10975;47.872;12.972;2023-04-07T00:13:57;0.10;99.90
21627;DHT22;10975;47.872;12.972;2023-04-07T00:16:23;0.10;99.90
21627;DHT22;10975;47.872;12.972;2023-04-07T00:18:50;0.10;99.90
21627;DHT22;10975;47.872;12.972;2023-04-07T00:21:18;0.10;99.90
21627;DHT22;10975;47.872;12.972;2023-04-07T00:23:44;0.10;99.90
21627;DHT22;10975;47.872;12.972;2023-04-07T00:26:12;0.10;99.90
21627;DHT22;10975;47.872;12.972;2023-04-07T00:28:39;0.10;99.90
21627;DHT22;10975;47.872;12.972;2023-04-07T00:31:06;0.10;99.90
21627;DHT22;10975;47.872;12.972;2023-04-07T00:33:32;0.00;99.90
21627;DHT22;10975;47.872;12.972;2023-04-07T00:35:59;0.00;99.90
21627;DHT22;10975;47.872;12.972;2023-04-07T00:38:26;0.00;99.90
21627;DHT22;10975;47.872;12.972;2023-04-07T00:40:56;0.00;99.90
21627;DHT22;10975;47.872;12.972;2023-04-07T00:43:23;0.00;99.90
21627;DHT22;10975;47.872;12.972;2023-04-07T00:45:51;-0.10;99.90
21627;DHT22;10975;47.872;12.972;2023-04-07T00:48:18;-0.10;99.90
21627;DHT22;10975;47.872;12.972;2023-04-07T00:50:45;-0.20;99.90
21627;DHT22;10975;47.872;12.972;2023-04-07T00:53:12;-0.20;99.90
21627;DHT22;10975;47.872;12.972;2023-04-07T00:55:39;-0.20;99.90
21627;DHT22;10975;47.872;12.972;2023-04-07T00:58:05;-0.10;99.90
21627;DHT22;10975;47.872;12.972;2023-04-07T01:00:34;-0.10;99.90
21627;DHT22;10975;47.872;12.972;2023-04-07T01:03:05;-0.10;99.90
21627;DHT22;10975;47.872;12.972;2023-04-07T01:05:38;-0.20;99.90
21627;DHT22;10975;47.872;12.972;2023-04-07T01:08:11;-0.10;99.90
21627;DHT22;10975;47.872;12.972;2023-04-07T01:13:20;-0.20;99.90
21627;DHT22;10975;47.872;12.972;2023-04-07T01:15:48;-0.20;99.90
21627;DHT22;10975;47.872;12.972;2023-04-07T01:18:20;-0.20;99.90
21627;DHT22;10975;47.872;12.972;2023-04-07T01:20:48;-0.30;99.90
21627;DHT22;10975;47.872;12.972;2023-04-07T01:23:30;-0.20;99.90
21627;DHT22;10975;47.872;12.972;2023-04-07T01:26:06;-0.30;99.90
21627;DHT22;10975;47.872;12.972;2023-04-07T01:31:26;-0.30;99.90
21627;DHT22;10975;47.872;12.972;2023-04-07T01:33:54;-0.30;99.90
21627;DHT22;10975;47.872;12.972;2023-04-07T01:36:21;-0.30;99.90
21627;DHT22;10975;47.872;12.972;2023-04-07T01:38:48;-0.30;99.90
21627;DHT22;10975;47.872;12.972;2023-04-07T01:41:16;-0.20;99.90
21627;DHT22;10975;47.872;12.972;2023-04-07T01:43:44;-0.20;99.90
21627;DHT22;10975;47.872;12.972;2023-04-07T01:46:17;-0.10;99.90
21627;DHT22;10975;47.872;12.972;2023-04-07T01:48:47;-0.20;99.90
21627;DHT22;10975;47.872;12.972;2023-04-07T01:51:14;-0.20;99.90
21627;DHT22;10975;47.872;12.972;2023-04-07T01:53:44;-0.20;99.90
21627;DHT22;10975;47.872;12.972;2023-04-07T01:56:11;-0.20;99.90
21627;DHT22;10975;47.872;12.972;2023-04-07T01:58:38;-0.20;99.90
21627;DHT22;10975;47.872;12.972;2023-04-07T02:01:05;-0.20;99.90
21627;DHT22;10975;47.872;12.972;2023-04-07T02:03:38;-0.10;99.90
21627;DHT22;10975;47.872;12.972;2023-04-07T02:06:06;-0.10;99.90
21627;DHT22;10975;47.872;12.972;2023-04-07T02:08:35;-0.10;99.90
21627;DHT22;10975;47.872;12.972;2023-04-07T02:11:02;-0.10;99.90
21627;DHT22;10975;47.872;12.972;2023-04-07T02:13:29;-0.10;99.90
21627;DHT22;10975;47.872;12.972;2023-04-07T02:15:56;-0.10;99.90
21627;DHT22;10975;47.872;12.972;2023-04-07T02:18:23;-0.10;99.90
21627;DHT22;10975;47.872;12.972;2023-04-07T02:20:51;-0.10;99.90
21627;DHT22;10975;47.872;12.972;2023-04-07T02:23:18;-0.10;99.90
21627;DHT22;10975;47.872;12.972;2023-04-07T02:25:45;-0.10;99.90
21627;DHT22;10975;47.872;12.972;2023-04-07T02:28:11;0.00;99.90
21627;DHT22;10975;47.872;12.972;2023-04-07T02:30:38;0.00;99.90
21627;DHT22;10975;47.872;12.972;2023-04-07T02:33:05;0.10;99.90
21627;DHT22;10975;47.872;12.972;2023-04-07T02:35:32;0.10;99.90
21627;DHT22;10975;47.872;12.972;2023-04-07T02:37:58;0.10;99.90
21627;DHT22;10975;47.872;12.972;2023-04-07T02:40:25;0.00;99.90
21627;DHT22;10975;47.872;12.972;2023-04-07T02:42:52;0.00;99.90
21627;DHT22;10975;47.872;12.972;2023-04-07T02:45:18;0.00;99.90
21627;DHT22;10975;47.872;12.972;2023-04-07T02:47:45;0.00;99.90
21627;DHT22;10975;47.872;12.972;2023-04-07T02:50:12;0.00;99.90
21627;DHT22;10975;47.872;12.972;2023-04-07T02:52:38;0.00;99.90
21627;DHT22;10975;47.872;12.972;2023-04-07T02:55:06;0.00;99.90
21627;DHT22;10975;47.872;12.972;2023-04-07T02:57:32;0.00;99.90
21627;DHT22;10975;47.872;12.972;2023-04-07T02:59:59;-0.10;99.90
21627;DHT22;10975;47.872;12.972;2023-04-07T03:02:26;-0.20;99.90
21627;DHT22;10975;47.872;12.972;2023-04-07T03:04:53;-0.10;99.90
21627;DHT22;10975;47.872;12.972;2023-04-07T03:07:19;-0.20;99.90
21627;DHT22;10975;47.872;12.972;2023-04-07T03:09:46;-0.20;99.90
21627;DHT22;10975;47.872;12.972;2023-04-07T03:12:13;-0.20;99.90
21627;DHT22;10975;47.872;12.972;2023-04-07T03:14:39;-0.20;99.90
21627;DHT22;10975;47.872;12.972;2023-04-07T03:17:06;-0.20;99.90
21627;DHT22;10975;47.872;12.972;2023-04-07T03:19:33;-0.20;99.90
21627;DHT22;10975;47.872;12.972;2023-04-07T03:21:59;-0.30;99.90
21627;DHT22;10975;47.872;12.972;2023-04-07T03:24:26;-0.30;99.90
21627;DHT22;10975;47.872;12.972;2023-04-07T03:26:53;-0.30;99.90
21627;DHT22;10975;47.872;12.972;2023-04-07T03:29:20;-0.30;99.90
21627;DHT22;10975;47.872;12.972;2023-04-07T03:31:46;-0.40;99.90
21627;DHT22;10975;47.872;12.972;2023-04-07T03:34:13;-0.40;99.90
21627;DHT22;10975;47.872;12.972;2023-04-07T03:36:40;-0.40;99.90
21627;DHT22;10975;47.872;12.972;2023-04-07T03:39:08;-0.50;99.90
21627;DHT22;10975;47.872;12.972;2023-04-07T03:41:34;-0.50;99.90
21627;DHT22;10975;47.872;12.972;2023-04-07T03:44:01;-0.50;99.90
21627;DHT22;10975;47.872;12.972;2023-04-07T03:46:28;-0.50;99.90
21627;DHT22;10975;47.872;12.972;2023-04-07T03:48:55;-0.50;99.90
21627;DHT22;10975;47.872;12.972;2023-04-07T03:51:21;-0.60;99.90
21627;DHT22;10975;47.872;12.972;2023-04-07T03:53:48;-0.60;99.90
21627;DHT22;10975;47.872;12.972;2023-04-07T03:56:15;-0.70;99.90
21627;DHT22;10975;47.872;12.972;2023-04-07T03:58:42;-0.80;99.90
21627;DHT22;10975;47.872;12.972;2023-04-07T04:01:09;-0.80;99.90
21627;DHT22;10975;47.872;12.972;2023-04-07T04:03:36;-0.80;99.90
21627;DHT22;10975;47.872;12.972;2023-04-07T04:06:03;-0.80;99.90
21627;DHT22;10975;47.872;12.972;2023-04-07T04:08:30;-0.70;99.90
21627;DHT22;10975;47.872;12.972;2023-04-07T04:10:57;-0.80;99.90
21627;DHT22;10975;47.872;12.972;2023-04-07T04:13:23;-0.90;99.90
21627;DHT22;10975;47.872;12.972;2023-04-07T04:15:51;-0.90;99.90
21627;DHT22;10975;47.872;12.972;2023-04-07T04:18:17;-0.90;99.90
21627;DHT22;10975;47.872;12.972;2023-04-07T04:20:44;-0.80;99.90
21627;DHT22;10975;47.872;12.972;2023-04-07T04:23:11;-0.80;99.90
21627;DHT22;10975;47.872;12.972;2023-04-07T04:25:38;-0.80;99.90
21627;DHT22;10975;47.872;12.972;2023-04-07T04:28:07;-0.80;99.90
21627;DHT22;10975;47.872;12.972;2023-04-07T04:30:34;-0.90;99.90
21627;DHT22;10975;47.872;12.972;2023-04-07T04:33:01;-0.90;99.90
21627;DHT22;10975;47.872;12.972;2023-04-07T04:35:28;-0.90;99.90
21627;DHT22;10975;47.872;12.972;2023-04-07T04:37:55;-0.90;99.90
21627;DHT22;10975;47.872;12.972;2023-04-07T04:40:22;-0.90;99.90
21627;DHT22;10975;47.872;12.972;2023-04-07T04:42:48;-0.80;99.90
21627;DHT22;10975;47.872;12.972;2023-04-07T04:45:15;-0.80;99.90
21627;DHT22;10975;47.872;12.972;2023-04-07T04:47:42;-0.80;99.90
21627;DHT22;10975;47.872;12.972;2023-04-07T04:50:09;-0.80;99.90
21627;DHT22;10975;47.872;12.972;2023-04-07T04:52:36;-0.80;99.90
21627;DHT22;10975;47.872;12.972;2023-04-07T04:55:05;-0.80;99.90
21627;DHT22;10975;47.872;12.972;2023-04-07T04:57:32;-0.80;99.90
21627;DHT22;10975;47.872;12.972;2023-04-07T05:00:01;-0.70;99.90
21627;DHT22;10975;47.872;12.972;2023-04-07T05:02:29;-0.70;99.90
21627;DHT22;10975;47.872;12.972;2023-04-07T05:04:57;-0.80;99.90
21627;DHT22;10975;47.872;12.972;2023-04-07T05:07:24;-0.70;99.90
21627;DHT22;10975;47.872;12.972;2023-04-07T05:09:50;-0.60;99.90
21627;DHT22;10975;47.872;12.972;2023-04-07T05:12:17;-0.50;99.90
21627;DHT22;10975;47.872;12.972;2023-04-07T05:14:44;-0.60;99.90
21627;DHT22;10975;47.872;12.972;2023-04-07T05:17:10;-0.60;99.90
21627;DHT22;10975;47.872;12.972;2023-04-07T05:19:37;-0.50;99.90
21627;DHT22;10975;47.872;12.972;2023-04-07T05:22:04;-0.50;99.90
21627;DHT22;10975;47.872;12.972;2023-04-07T05:24:31;-0.40;99.90
21627;DHT22;10975;47.872;12.972;2023-04-07T05:26:57;-0.40;99.90
21627;DHT22;10975;47.872;12.972;2023-04-07T05:29:24;-0.30;99.90
21627;DHT22;10975;47.872;12.972;2023-04-07T05:31:50;-0.20;99.90
21627;DHT22;10975;47.872;12.972;2023-04-07T05:34:17;-0.20;99.90
21627;DHT22;10975;47.872;12.972;2023-04-07T05:36:44;-0.20;99.90
21627;DHT22;10975;47.872;12.972;2023-04-07T05:39:11;-0.10;99.90
21627;DHT22;10975;47.872;12.972;2023-04-07T05:41:38;0.10;99.90
21627;DHT22;10975;47.872;12.972;2023-04-07T05:44:04;0.10;99.90
21627;DHT22;10975;47.872;12.972;2023-04-07T05:46:32;0.20;99.90
21627;DHT22;10975;47.872;12.972;2023-04-07T05:48:58;0.30;99.90
21627;DHT22;10975;47.872;12.972;2023-04-07T05:51:44;0.40;99.90
21627;DHT22;10975;47.872;12.972;2023-04-07T05:54:13;0.40;99.90
21627;DHT22;10975;47.872;12.972;2023-04-07T05:56:40;0.50;99.90
21627;DHT22;10975;47.872;12.972;2023-04-07T05:59:07;0.60;99.90
21627;DHT22;10975;47.872;12.972;2023-04-07T06:01:34;0.70;99.90
21627;DHT22;10975;47.872;12.972;2023-04-07T06:04:01;0.80;99.90
21627;DHT22;10975;47.872;12.972;2023-04-07T06:06:29;0.90;99.90
21627;DHT22;10975;47.872;12.972;2023-04-07T06:08:58;0.90;99.90
21627;DHT22;10975;47.872;12.972;2023-04-07T06:11:25;1.00;99.90
21627;DHT22;10975;47.872;12.972;2023-04-07T06:13:52;1.00;99.90
21627;DHT22;10975;47.872;12.972;2023-04-07T06:16:19;1.20;99.90
21627;DHT22;10975;47.872;12.972;2023-04-07T06:18:46;1.20;99.90
21627;DHT22;10975;47.872;12.972;2023-04-07T06:21:12;1.30;99.90
21627;DHT22;10975;47.872;12.972;2023-04-07T06:23:39;1.40;99.90
21627;DHT22;10975;47.872;12.972;2023-04-07T06:26:09;1.60;99.90
21627;DHT22;10975;47.872;12.972;2023-04-07T06:28:37;1.70;99.90
21627;DHT22;10975;47.872;12.972;2023-04-07T06:31:03;1.80;99.90
21627;DHT22;10975;47.872;12.972;2023-04-07T06:33:31;2.00;99.90
21627;DHT22;10975;47.872;12.972;2023-04-07T06:35:57;2.10;99.90
21627;DHT22;10975;47.872;12.972;2023-04-07T06:38:24;2.20;99.90
21627;DHT22;10975;47.872;12.972;2023-04-07T06:40:51;2.30;99.90
21627;DHT22;10975;47.872;12.972;2023-04-07T06:43:18;2.40;99.90
21627;DHT22;10975;47.872;12.972;2023-04-07T06:45:44;2.50;99.90
21627;DHT22;10975;47.872;12.972;2023-04-07T06:48:11;2.60;99.90
21627;DHT22;10975;47.872;12.972;2023-04-07T06:50:38;2.70;99.90
21627;DHT22;10975;47.872;12.972;2023-04-07T06:53:04;2.80;99.90
21627;DHT22;10975;47.872;12.972;2023-04-07T06:55:31;2.80;99.90
21627;DHT22;10975;47.872;12.972;2023-04-07T06:57:58;2.90;99.90
21627;DHT22;10975;47.872;12.972;2023-04-07T07:00:24;3.10;99.90
21627;DHT22;10975;47.872;12.972;2023-04-07T07:02:52;3.20;99.90
21627;DHT22;10975;47.872;12.972;2023-04-07T07:05:19;3.20;99.90
21627;DHT22;10975;47.872;12.972;2023-04-07T07:07:46;3.40;99.90
21627;DHT22;10975;47.872;12.972;2023-04-07T07:10:12;3.40;99.90
21627;DHT22;10975;47.872;12.972;2023-04-07T07:12:39;3.60;99.90
21627;DHT22;10975;47.872;12.972;2023-04-07T07:15:06;3.70;99.90
21627;DHT22;10975;47.872;12.972;2023-04-07T07:17:33;3.80;99.90
21627;DHT22;10975;47.872;12.972;2023-04-07T07:19:59;4.00;99.90
21627;DHT22;10975;47.872;12.972;2023-04-07T07:22:26;4.10;99.90
21627;DHT22;10975;47.872;12.972;2023-04-07T07:24:53;4.30;99.90
21627;DHT22;10975;47.872;12.972;2023-04-07T07:27:19;4.40;99.90
21627;DHT22;10975;47.872;12.972;2023-04-07T07:29:46;4.50;99.90
21627;DHT22;10975;47.872;12.972;2023-04-07T07:32:13;4.60;99.90
21627;DHT22;10975;47.872;12.972;2023-04-07T07:34:39;4.80;99.90
21627;DHT22;10975;47.872;12.972;2023-04-07T07:37:06;4.90;99.90
21627;DHT22;10975;47.872;12.972;2023-04-07T07:39:33;5.10;99.90
21627;DHT22;10975;47.872;12.972;2023-04-07T07:42:00;5.20;99.90
21627;DHT22;10975;47.872;12.972;2023-04-07T07:44:27;5.30;99.90
21627;DHT22;10975;47.872;12.972;2023-04-07T07:46:57;5.50;99.90
21627;DHT22;10975;47.872;12.972;2023-04-07T07:49:24;5.60;99.90
21627;DHT22;10975;47.872;12.972;2023-04-07T07:51:50;5.70;99.90
21627;DHT22;10975;47.872;12.972;2023-04-07T07:54:17;5.90;99.90
21627;DHT22;10975;47.872;12.972;2023-04-07T07:56:44;6.00;99.90
21627;DHT22;10975;47.872;12.972;2023-04-07T07:59:10;6.20;99.90
21627;DHT22;10975;47.872;12.972;2023-04-07T08:01:37;6.30;99.90
21627;DHT22;10975;47.872;12.972;2023-04-07T08:04:04;6.50;99.90
21627;DHT22;10975;47.872;12.972;2023-04-07T08:06:31;6.60;99.90
21627;DHT22;10975;47.872;12.972;2023-04-07T08:08:58;6.70;99.90
21627;DHT22;10975;47.872;12.972;2023-04-07T08:11:24;6.80;99.90
21627;DHT22;10975;47.872;12.972;2023-04-07T08:13:51;6.90;99.90
21627;DHT22;10975;47.872;12.972;2023-04-07T08:16:19;7.10;99.90
21627;DHT22;10975;47.872;12.972;2023-04-07T08:18:47;7.20;99.90
21627;DHT22;10975;47.872;12.972;2023-04-07T08:21:14;7.30;99.90
21627;DHT22;10975;47.872;12.972;2023-04-07T08:23:41;7.40;99.90
21627;DHT22;10975;47.872;12.972;2023-04-07T08:26:08;7.40;99.90
21627;DHT22;10975;47.872;12.972;2023-04-07T08:28:35;7.70;99.90
21627;DHT22;10975;47.872;12.972;2023-04-07T08:31:02;7.90;99.90
21627;DHT22;10975;47.872;12.972;2023-04-07T08:33:29;8.00;99.90
21627;DHT22;10975;47.872;12.972;2023-04-07T08:35:56;8.10;99.90
21627;DHT22;10975;47.872;12.972;2023-04-07T08:38:23;8.00;99.90
21627;DHT22;10975;47.872;12.972;2023-04-07T08:40:52;8.00;99.90
21627;DHT22;10975;47.872;12.972;2023-04-07T08:43:20;8.10;99.90
21627;DHT22;10975;47.872;12.972;2023-04-07T08:45:49;8.10;99.90
21627;DHT22;10975;47.872;12.972;2023-04-07T08:48:18;8.40;99.90
21627;DHT22;10975;47.872;12.972;2023-04-07T08:50:47;8.50;99.90
21627;DHT22;10975;47.872;12.972;2023-04-07T08:53:17;8.60;99.90
21627;DHT22;10975;47.872;12.972;2023-04-07T08:55:44;8.60;99.90
21627;DHT22;10975;47.872;12.972;2023-04-07T08:58:11;8.70;99.90
21627;DHT22;10975;47.872;12.972;2023-04-07T09:00:39;8.70;99.90
21627;DHT22;10975;47.872;12.972;2023-04-07T09:03:07;8.60;99.90
21627;DHT22;10975;47.872;12.972;2023-04-07T09:05:34;8.60;99.90
21627;DHT22;10975;47.872;12.972;2023-04-07T09:08:01;8.70;99.90
21627;DHT22;10975;47.872;12.972;2023-04-07T09:10:28;8.70;99.90
21627;DHT22;10975;47.872;12.972;2023-04-07T09:12:57;8.80;99.90
21627;DHT22;10975;47.872;12.972;2023-04-07T09:15:23;8.90;99.90
21627;DHT22;10975;47.872;12.972;2023-04-07T09:17:50;9.00;99.90
21627;DHT22;10975;47.872;12.972;2023-04-07T09:20:17;9.00;99.90
21627;DHT22;10975;47.872;12.972;2023-04-07T09:22:44;9.00;99.90
21627;DHT22;10975;47.872;12.972;2023-04-07T09:25:12;9.20;99.90
21627;DHT22;10975;47.872;12.972;2023-04-07T09:27:39;9.30;99.90
21627;DHT22;10975;47.872;12.972;2023-04-07T09:30:09;9.30;99.90
21627;DHT22;10975;47.872;12.972;2023-04-07T09:32:36;9.20;99.90
21627;DHT22;10975;47.872;12.972;2023-04-07T09:35:04;9.30;99.90
21627;DHT22;10975;47.872;12.972;2023-04-07T09:37:31;9.40;99.90
21627;DHT22;10975;47.872;12.972;2023-04-07T09:39:58;9.40;99.90
21627;DHT22;10975;47.872;12.972;2023-04-07T09:42:25;9.50;99.90
21627;DHT22;10975;47.872;12.972;2023-04-07T09:44:56;9.60;99.90
21627;DHT22;10975;47.872;12.972;2023-04-07T09:47:26;9.70;99.90
21627;DHT22;10975;47.872;12.972;2023-04-07T09:49:56;9.80;99.90
21627;DHT22;10975;47.872;12.972;2023-04-07T09:52:25;9.80;99.90
21627;DHT22;10975;47.872;12.972;2023-04-07T09:55:12;9.90;99.90
21627;DHT22;10975;47.872;12.972;2023-04-07T09:57:39;10.00;99.90
21627;DHT22;10975;47.872;12.972;2023-04-07T10:00:06;10.00;99.90
21627;DHT22;10975;47.872;12.972;2023-04-07T10:02:33;10.10;99.90
21627;DHT22;10975;47.872;12.972;2023-04-07T10:05:00;10.20;99.90
21627;DHT22;10975;47.872;12.972;2023-04-07T10:07:27;10.20;99.90
21627;DHT22;10975;47.872;12.972;2023-04-07T10:09:54;10.20;99.90
21627;DHT22;10975;47.872;12.972;2023-04-07T10:12:21;10.30;99.90
21627;DHT22;10975;47.872;12.972;2023-04-07T10:14:48;10.40;99.90
21627;DHT22;10975;47.872;12.972;2023-04-07T10:17:15;10.40;99.90
21627;DHT22;10975;47.872;12.972;2023-04-07T10:19:45;10.40;99.90
21627;DHT22;10975;47.872;12.972;2023-04-07T10:22:12;10.40;99.90
21627;DHT22;10975;47.872;12.972;2023-04-07T10:27:30;10.50;99.90
21627;DHT22;10975;47.872;12.972;2023-04-07T10:29:57;10.60;99.90
21627;DHT22;10975;47.872;12.972;2023-04-07T10:32:24;10.60;99.90
21627;DHT22;10975;47.872;12.972;2023-04-07T10:37:23;11.10;99.90
21627;DHT22;10975;47.872;12.972;2023-04-07T10:40:36;11.10;99.90
21627;DHT22;10975;47.872;12.972;2023-04-07T10:45:07;11.10;99.90
21627;DHT22;10975;47.872;12.972;2023-04-07T10:48:21;11.30;99.90
21627;DHT22;10975;47.872;12.972;2023-04-07T10:50:22;11.40;99.90
21627;DHT22;10975;47.872;12.972;2023-04-07T10:53:11;11.60;99.90
21627;DHT22;10975;47.872;12.972;2023-04-07T10:55:38;11.70;99.90
21627;DHT22;10975;47.872;12.972;2023-04-07T11:01:26;11.60;99.90
21627;DHT22;10975;47.872;12.972;2023-04-07T11:03:41;11.50;99.90
21627;DHT22;10975;47.872;12.972;2023-04-07T11:06:09;11.40;99.90
21627;DHT22;10975;47.872;12.972;2023-04-07T11:08:37;11.50;99.90
21627;DHT22;10975;47.872;12.972;2023-04-07T11:11:04;11.60;99.90
21627;DHT22;10975;47.872;12.972;2023-04-07T11:16:12;11.70;99.90
21627;DHT22;10975;47.872;12.972;2023-04-07T11:18:39;11.60;99.90
21627;DHT22;10975;47.872;12.972;2023-04-07T11:21:07;11.70;99.90
21627;DHT22;10975;47.872;12.972;2023-04-07T11:23:40;11.90;99.90
21627;DHT22;10975;47.872;12.972;2023-04-07T11:26:09;11.90;99.90
21627;DHT22;10975;47.872;12.972;2023-04-07T11:33:51;12.10;99.90
21627;DHT22;10975;47.872;12.972;2023-04-07T11:36:49;12.10;99.90
21627;DHT22;10975;47.872;12.972;2023-04-07T11:39:32;12.00;99.90
21627;DHT22;10975;47.872;12.972;2023-04-07T11:42:33;12.10;99.90
21627;DHT22;10975;47.872;12.972;2023-04-07T11:45:20;12.00;99.90
21627;DHT22;10975;47.872;12.972;2023-04-07T11:47:47;12.10;99.90
21627;DHT22;10975;47.872;12.972;2023-04-07T11:50:16;12.00;99.90
21627;DHT22;10975;47.872;12.972;2023-04-07T11:52:48;12.10;99.90
21627;DHT22;10975;47.872;12.972;2023-04-07T11:55:21;12.20;99.90
21627;DHT22;10975;47.872;12.972;2023-04-07T11:57:50;12.20;99.90
21627;DHT22;10975;47.872;12.972;2023-04-07T12:00:18;12.20;99.90
21627;DHT22;10975;47.872;12.972;2023-04-07T12:02:55;12.20;99.90
21627;DHT22;10975;47.872;12.972;2023-04-07T12:05:26;12.20;99.90
21627;DHT22;10975;47.872;12.972;2023-04-07T12:11:25;12.20;99.90
21627;DHT22;10975;47.872;12.972;2023-04-07T12:14:09;12.20;99.90
21627;DHT22;10975;47.872;12.972;2023-04-07T12:16:49;12.00;99.90
21627;DHT22;10975;47.872;12.972;2023-04-07T12:19:46;12.00;99.90
21627;DHT22;10975;47.872;12.972;2023-04-07T12:23:01;12.30;99.90
21627;DHT22;10975;47.872;12.972;2023-04-07T12:25:35;12.30;99.90
21627;DHT22;10975;47.872;12.972;2023-04-07T12:28:03;12.40;99.90
21627;DHT22;10975;47.872;12.972;2023-04-07T12:30:32;12.40;99.90
21627;DHT22;10975;47.872;12.972;2023-04-07T12:32:59;12.50;99.90
21627;DHT22;10975;47.872;12.972;2023-04-07T12:35:31;12.30;99.90
21627;DHT22;10975;47.872;12.972;2023-04-07T12:38:01;12.20;99.90
21627;DHT22;10975;47.872;12.972;2023-04-07T12:40:32;12.10;99.90
21627;DHT22;10975;47.872;12.972;2023-04-07T12:43:07;12.10;99.90
21627;DHT22;10975;47.872;12.972;2023-04-07T12:45:48;12.00;99.90
21627;DHT22;10975;47.872;12.972;2023-04-07T12:48:15;12.10;99.90
21627;DHT22;10975;47.872;12.972;2023-04-07T12:51:06;12.30;99.90
21627;DHT22;10975;47.872;12.972;2023-04-07T12:53:33;12.30;99.90
21627;DHT22;10975;47.872;12.972;2023-04-07T12:56:10;12.40;99.90
21627;DHT22;10975;47.872;12.972;2023-04-07T12:58:42;12.50;99.90
21627;DHT22;10975;47.872;12.972;2023-04-07T13:01:38;12.40;99.90
21627;DHT22;10975;47.872;12.972;2023-04-07T13:04:25;12.60;99.90
21627;DHT22;10975;47.872;12.972;2023-04-07T13:07:12;12.40;99.90
21627;DHT22;10975;47.872;12.972;2023-04-07T13:10:09;12.40;99.90
21627;DHT22;10975;47.872;12.972;2023-04-07T13:12:36;12.40;99.90
21627;DHT22;10975;47.872;12.972;2023-04-07T13:15:05;12.50;99.90
21627;DHT22;10975;47.872;12.972;2023-04-07T13:17:32;12.70;99.90
21627;DHT22;10975;47.872;12.972;2023-04-07T13:20:12;12.90;99.90
21627;DHT22;10975;47.872;12.972;2023-04-07T13:23:03;12.80;99.90
21627;DHT22;10975;47.872;12.972;2023-04-07T13:28:30;13.00;99.90
21627;DHT22;10975;47.872;12.972;2023-04-07T13:31:00;13.10;99.90
21627;DHT22;10975;47.872;12.972;2023-04-07T13:36:34;13.10;99.90
21627;DHT22;10975;47.872;12.972;2023-04-07T13:42:07;13.40;99.90
21627;DHT22;10975;47.872;12.972;2023-04-07T13:44:40;13.50;99.90
21627;DHT22;10975;47.872;12.972;2023-04-07T13:47:23;13.60;99.30
21627;DHT22;10975;47.872;12.972;2023-04-07T13:49:51;13.60;99.90
21627;DHT22;10975;47.872;12.972;2023-04-07T13:52:18;13.60;99.70
21627;DHT22;10975;47.872;12.972;2023-04-07T13:54:48;13.60;99.90
21627;DHT22;10975;47.872;12.972;2023-04-07T13:57:14;13.60;99.00
21627;DHT22;10975;47.872;12.972;2023-04-07T13:59:47;13.40;99.90
21627;DHT22;10975;47.872;12.972;2023-04-07T14:02:35;13.40;99.90
21627;DHT22;10975;47.872;12.972;2023-04-07T14:05:27;13.50;99.90
21627;DHT22;10975;47.872;12.972;2023-04-07T14:08:06;13.80;99.90
21627;DHT22;10975;47.872;12.972;2023-04-07T14:10:33;14.10;99.30
21627;DHT22;10975;47.872;12.972;2023-04-07T14:13:12;14.40;99.70
21627;DHT22;10975;47.872;12.972;2023-04-07T14:15:39;14.50;99.40
21627;DHT22;10975;47.872;12.972;2023-04-07T14:18:06;14.30;99.70
21627;DHT22;10975;47.872;12.972;2023-04-07T14:20:33;14.40;99.00
21627;DHT22;10975;47.872;12.972;2023-04-07T14:23:00;14.10;98.80
21627;DHT22;10975;47.872;12.972;2023-04-07T14:25:39;14.10;98.30
21627;DHT22;10975;47.872;12.972;2023-04-07T14:28:20;14.40;98.80
21627;DHT22;10975;47.872;12.972;2023-04-07T14:30:51;14.40;99.30
21627;DHT22;10975;47.872;12.972;2023-04-07T14:33:20;14.70;98.50
21627;DHT22;10975;47.872;12.972;2023-04-07T14:35:54;14.70;98.20
21627;DHT22;10975;47.872;12.972;2023-04-07T14:38:52;14.80;97.90
21627;DHT22;10975;47.872;12.972;2023-04-07T14:41:19;14.50;99.00
21627;DHT22;10975;47.872;12.972;2023-04-07T14:43:53;14.30;99.70
21627;DHT22;10975;47.872;12.972;2023-04-07T14:46:27;14.50;99.50
21627;DHT22;10975;47.872;12.972;2023-04-07T14:48:55;14.60;97.80
21627;DHT22;10975;47.872;12.972;2023-04-07T14:51:23;14.40;98.90
21627;DHT22;10975;47.872;12.972;2023-04-07T14:53:50;14.60;98.10
21627;DHT22;10975;47.872;12.972;2023-04-07T14:56:21;14.40;98.10
21627;DHT22;10975;47.872;12.972;2023-04-07T14:58:48;14.30;99.40
21627;DHT22;10975;47.872;12.972;2023-04-07T15:01:15;14.20;98.70
21627;DHT22;10975;47.872;12.972;2023-04-07T15:03:43;14.00;99.50
21627;DHT22;10975;47.872;12.972;2023-04-07T15:06:10;13.90;99.50
21627;DHT22;10975;47.872;12.972;2023-04-07T15:08:37;14.00;98.50
21627;DHT22;10975;47.872;12.972;2023-04-07T15:11:05;14.00;98.60
21627;DHT22;10975;47.872;12.972;2023-04-07T15:13:32;13.80;99.10
21627;DHT22;10975;47.872;12.972;2023-04-07T15:16:08;13.90;98.20
21627;DHT22;10975;47.872;12.972;2023-04-07T15:18:36;13.90;98.80
21627;DHT22;10975;47.872;12.972;2023-04-07T15:21:03;13.80;98.60
21627;DHT22;10975;47.872;12.972;2023-04-07T15:23:30;13.90;97.50
21627;DHT22;10975;47.872;12.972;2023-04-07T15:25:57;13.80;99.30
21627;DHT22;10975;47.872;12.972;2023-04-07T15:28:28;13.90;98.50
21627;DHT22;10975;47.872;12.972;2023-04-07T15:31:15;13.90;98.30
21627;DHT22;10975;47.872;12.972;2023-04-07T15:34:05;13.70;99.40
21627;DHT22;10975;47.872;12.972;2023-04-07T15:36:32;13.70;99.10
21627;DHT22;10975;47.872;12.972;2023-04-07T15:39:01;13.50;98.90
21627;DHT22;10975;47.872;12.972;2023-04-07T15:41:29;13.40;99.80
21627;DHT22;10975;47.872;12.972;2023-04-07T15:43:57;13.20;99.90
21627;DHT22;10975;47.872;12.972;2023-04-07T15:46:27;13.10;99.90
21627;DHT22;10975;47.872;12.972;2023-04-07T15:48:58;13.00;99.90
21627;DHT22;10975;47.872;12.972;2023-04-07T15:51:24;13.00;99.90
21627;DHT22;10975;47.872;12.972;2023-04-07T15:53:53;13.00;99.90
21627;DHT22;10975;47.872;12.972;2023-04-07T15:56:19;13.00;99.90
21627;DHT22;10975;47.872;12.972;2023-04-07T15:58:50;12.80;99.90
21627;DHT22;10975;47.872;12.972;2023-04-07T16:01:16;12.70;99.90
21627;DHT22;10975;47.872;12.972;2023-04-07T16:03:43;12.60;99.90
21627;DHT22;10975;47.872;12.972;2023-04-07T16:06:11;12.70;99.90
21627;DHT22;10975;47.872;12.972;2023-04-07T16:08:40;12.60;99.90
21627;DHT22;10975;47.872;12.972;2023-04-07T16:11:10;12.60;99.90
21627;DHT22;10975;47.872;12.972;2023-04-07T16:13:36;12.60;99.90